createdAt,value
2023-05-17T00:01:01.641Z,10.03
2023-05-17T00:03:32.464Z,9.99
2023-05-17T00:06:03.292Z,9.95
2023-05-17T00:08:32.730Z,9.94
2023-05-17T00:11:03.458Z,9.92
2023-05-17T00:13:34.139Z,9.87
2023-05-17T00:16:05.156Z,9.85
2023-05-17T00:18:36.093Z,9.83
2023-05-17T00:21:05.366Z,9.80
2023-05-17T00:23:36.019Z,9.78
2023-05-17T00:26:06.780Z,9.74
2023-05-17T00:28:37.486Z,9.71
2023-05-17T00:31:08.166Z,9.66
2023-05-17T00:33:38.920Z,9.63
2023-05-17T00:36:09.950Z,9.62
2023-05-17T00:38:40.811Z,9.59
2023-05-17T00:41:11.481Z,9.55
2023-05-17T00:43:42.116Z,9.51
2023-05-17T00:46:12.820Z,9.46
2023-05-17T00:48:43.712Z,9.41
2023-05-17T00:51:13.353Z,9.39
2023-05-17T00:53:44.306Z,9.34
2023-05-17T00:56:15.099Z,9.29
2023-05-17T00:58:45.994Z,9.24
2023-05-17T01:01:15.297Z,9.21
2023-05-17T01:03:46.924Z,9.15
2023-05-17T01:06:17.852Z,9.07
2023-05-17T01:08:48.548Z,9.03
2023-05-17T01:11:29.369Z,9.00
2023-05-17T01:14:10.572Z,8.98
2023-05-17T01:16:49.001Z,8.96
2023-05-17T01:19:53.519Z,8.91
2023-05-17T01:22:43.119Z,8.88
2023-05-17T01:25:29.346Z,8.87
2023-05-17T01:28:01.906Z,8.84
2023-05-17T01:30:34.916Z,8.83
2023-05-17T01:33:07.594Z,8.80
2023-05-17T01:35:38.658Z,8.75
2023-05-17T01:38:09.705Z,8.76
2023-05-17T01:40:40.958Z,8.76
2023-05-17T01:43:17.744Z,8.73
2023-05-17T01:46:00.775Z,8.69
2023-05-17T01:48:36.628Z,8.66
2023-05-17T01:51:09.492Z,8.64
2023-05-17T01:53:46.643Z,8.63
2023-05-17T01:56:20.542Z,8.58
2023-05-17T01:58:52.929Z,8.55
2023-05-17T02:01:24.542Z,8.51
2023-05-17T02:03:55.521Z,8.49
2023-05-17T02:06:24.581Z,8.48
2023-05-17T02:08:55.262Z,8.48
2023-05-17T02:11:25.993Z,8.48
2023-05-17T02:13:56.704Z,8.49
2023-05-17T02:16:27.938Z,8.49
2023-05-17T02:18:58.697Z,8.50
2023-05-17T02:21:29.409Z,8.47
2023-05-17T02:24:00.058Z,8.46
2023-05-17T02:26:30.763Z,8.43
2023-05-17T02:29:01.476Z,8.41
2023-05-17T02:31:32.211Z,8.38
2023-05-17T02:34:03.155Z,8.32
2023-05-17T02:36:34.394Z,8.24
2023-05-17T02:39:05.230Z,8.16
2023-05-17T02:41:35.898Z,8.06
2023-05-17T02:44:06.588Z,7.94
2023-05-17T02:46:38.554Z,7.93
2023-05-17T02:49:09.455Z,7.88
2023-05-17T02:51:40.144Z,7.83
2023-05-17T02:54:10.812Z,7.77
2023-05-17T02:56:41.378Z,7.75
2023-05-17T02:59:12.085Z,7.75
2023-05-17T03:01:42.766Z,7.78
2023-05-17T03:04:13.687Z,7.80
2023-05-17T03:06:44.994Z,7.82
2023-05-17T03:09:15.741Z,7.81
2023-05-17T03:11:46.365Z,7.79
2023-05-17T03:14:17.033Z,7.82
2023-05-17T03:16:47.682Z,7.85
2023-05-17T03:19:18.639Z,7.89
2023-05-17T03:21:47.800Z,7.93
2023-05-17T03:24:18.490Z,7.96
2023-05-17T03:26:49.152Z,7.97
2023-05-17T03:29:19.858Z,7.97
2023-05-17T03:31:50.873Z,7.95
2023-05-17T03:34:19.974Z,7.94
2023-05-17T03:36:50.659Z,7.95
2023-05-17T03:39:21.393Z,7.99
2023-05-17T03:41:52.484Z,8.02
2023-05-17T03:44:23.156Z,8.01
2023-05-17T03:46:53.899Z,7.98
2023-05-17T03:49:24.700Z,7.99
2023-05-17T03:51:55.487Z,7.99
2023-05-17T03:54:26.139Z,7.99
2023-05-17T03:56:56.785Z,8.02
2023-05-17T03:59:27.631Z,8.08
2023-05-17T04:01:58.307Z,8.21
2023-05-17T04:04:29.121Z,8.37
2023-05-17T04:06:59.778Z,8.61
2023-05-17T04:09:32.339Z,8.91
2023-05-17T04:12:03.026Z,9.30
2023-05-17T04:14:33.870Z,9.76
2023-05-17T04:17:04.766Z,10.25
2023-05-17T04:19:35.718Z,10.87
2023-05-17T04:22:05.124Z,11.46
2023-05-17T04:24:35.872Z,12.07
2023-05-17T04:27:06.988Z,12.52
2023-05-17T04:29:37.766Z,12.93
2023-05-17T04:32:11.050Z,13.21
2023-05-17T04:34:41.755Z,13.28
2023-05-17T04:37:12.368Z,13.33
2023-05-17T04:39:43.071Z,13.46
2023-05-17T04:42:13.852Z,13.56
2023-05-17T04:44:44.602Z,13.53
2023-05-17T04:47:15.244Z,13.68
2023-05-17T04:49:45.949Z,13.86
2023-05-17T04:52:16.601Z,13.93
2023-05-17T04:54:47.349Z,14.09
2023-05-17T04:57:18.065Z,14.35
2023-05-17T04:59:48.752Z,14.84
2023-05-17T05:02:17.816Z,15.63
2023-05-17T05:04:48.734Z,16.48
2023-05-17T05:07:19.432Z,17.32
2023-05-17T05:09:48.632Z,17.89
2023-05-17T05:12:19.981Z,18.21
2023-05-17T05:14:50.708Z,18.47
2023-05-17T05:17:21.466Z,18.88
2023-05-17T05:19:52.810Z,19.57
2023-05-17T05:22:23.939Z,20.27
2023-05-17T05:24:55.131Z,20.55
2023-05-17T05:27:25.909Z,20.31
2023-05-17T05:29:57.063Z,19.82
2023-05-17T05:32:28.078Z,19.38
2023-05-17T05:34:58.875Z,18.65
2023-05-17T05:37:29.597Z,17.94
2023-05-17T05:40:00.621Z,17.49
2023-05-17T05:42:31.499Z,17.13
2023-05-17T05:45:02.336Z,16.81
2023-05-17T05:47:42.686Z,16.53
2023-05-17T05:50:13.497Z,16.14
2023-05-17T05:52:44.404Z,15.79
2023-05-17T05:55:21.892Z,15.35
2023-05-17T05:57:52.557Z,14.94
2023-05-17T06:00:25.346Z,14.77
2023-05-17T06:02:56.912Z,14.56
2023-05-17T06:05:28.340Z,14.33
2023-05-17T06:07:59.453Z,14.22
2023-05-17T06:10:28.790Z,14.16
2023-05-17T06:12:59.704Z,14.02
2023-05-17T06:15:31.423Z,13.93
2023-05-17T06:18:02.701Z,13.92
2023-05-17T06:20:33.804Z,13.93
2023-05-17T06:23:04.474Z,13.89
2023-05-17T06:25:35.249Z,13.92
2023-05-17T06:28:05.172Z,13.91
2023-05-17T06:30:35.934Z,13.89
2023-05-17T06:33:06.876Z,13.93
2023-05-17T06:35:47.967Z,13.96
2023-05-17T06:38:26.300Z,14.02
2023-05-17T06:40:55.659Z,14.11
2023-05-17T06:43:26.500Z,14.19
2023-05-17T06:45:55.790Z,14.18
2023-05-17T06:48:26.685Z,14.26
2023-05-17T06:50:55.867Z,14.44
2023-05-17T06:53:26.598Z,14.58
2023-05-17T06:55:57.336Z,14.63
2023-05-17T06:58:26.474Z,14.73
2023-05-17T07:00:57.386Z,14.83
2023-05-17T07:03:28.288Z,15.03
2023-05-17T07:05:57.523Z,15.18
2023-05-17T07:08:28.203Z,15.31
2023-05-17T07:10:59.003Z,15.43
2023-05-17T07:13:28.205Z,15.59
2023-05-17T07:15:59.912Z,15.71
2023-05-17T07:18:31.448Z,15.85
2023-05-17T07:21:02.359Z,15.91
2023-05-17T07:23:31.516Z,15.97
2023-05-17T07:26:04.224Z,15.98
2023-05-17T07:28:35.472Z,16.08
2023-05-17T07:31:06.437Z,16.23
2023-05-17T07:33:37.165Z,16.30
2023-05-17T07:36:21.785Z,16.16
2023-05-17T07:38:52.964Z,15.89
2023-05-17T07:41:22.146Z,15.86
2023-05-17T07:43:53.220Z,15.86
2023-05-17T07:46:24.254Z,15.94
2023-05-17T07:49:14.272Z,16.06
2023-05-17T07:51:45.057Z,16.21
2023-05-17T07:54:22.268Z,16.26
2023-05-17T07:56:53.929Z,16.19
2023-05-17T07:59:24.731Z,16.11
2023-05-17T08:01:54.015Z,15.82
2023-05-17T08:04:25.513Z,15.49
2023-05-17T08:06:56.389Z,15.30
2023-05-17T08:09:27.191Z,15.13
2023-05-17T08:11:58.020Z,15.03
2023-05-17T08:14:28.753Z,14.99
2023-05-17T08:16:59.443Z,15.01
2023-05-17T08:19:30.381Z,14.85
2023-05-17T08:22:01.298Z,14.68
2023-05-17T08:24:32.010Z,14.56
2023-05-17T08:27:02.701Z,14.46
2023-05-17T08:29:33.500Z,14.45
2023-05-17T08:32:04.574Z,14.58
2023-05-17T08:34:35.345Z,14.93
2023-05-17T08:37:06.441Z,15.31
2023-05-17T08:39:37.179Z,15.57
2023-05-17T08:42:08.724Z,15.77
2023-05-17T08:44:39.453Z,15.92
2023-05-17T08:47:10.019Z,16.05
2023-05-17T08:49:41.437Z,16.15
2023-05-17T08:52:13.097Z,16.26
2023-05-17T08:54:43.890Z,16.38
2023-05-17T08:57:14.363Z,16.47
2023-05-17T08:59:46.252Z,16.54
2023-05-17T09:02:17.565Z,16.59
2023-05-17T09:04:49.765Z,16.59
2023-05-17T09:07:20.596Z,16.65
2023-05-17T09:09:54.081Z,16.68
2023-05-17T09:12:25.835Z,16.82
2023-05-17T09:15:14.153Z,16.88
2023-05-17T09:17:50.619Z,16.75
2023-05-17T09:20:25.742Z,16.75
2023-05-17T09:22:57.601Z,16.93
2023-05-17T09:25:28.892Z,17.17
2023-05-17T09:28:03.012Z,17.21
2023-05-17T09:30:35.354Z,17.12
2023-05-17T09:33:08.653Z,16.98
2023-05-17T09:35:39.984Z,16.80
2023-05-17T09:38:12.264Z,16.65
2023-05-17T09:40:44.027Z,16.53
2023-05-17T09:43:16.664Z,16.50
2023-05-17T09:45:57.302Z,16.51
2023-05-17T09:48:28.727Z,16.64
2023-05-17T09:51:00.522Z,16.77
2023-05-17T09:53:32.440Z,16.80
2023-05-17T09:56:04.880Z,16.80
2023-05-17T09:58:37.010Z,16.83
2023-05-17T10:01:08.892Z,16.91
2023-05-17T10:04:20.034Z,17.08
2023-05-17T10:06:49.513Z,17.29
2023-05-17T10:10:22.690Z,17.36
2023-05-17T10:13:00.213Z,17.44
2023-05-17T10:15:31.570Z,17.51
2023-05-17T10:18:03.985Z,17.39
2023-05-17T10:20:35.349Z,17.13
2023-05-17T10:23:08.185Z,16.86
2023-05-17T10:25:39.829Z,16.75
2023-05-17T10:28:13.550Z,16.76
2023-05-17T10:30:45.221Z,16.92
2023-05-17T10:33:18.943Z,16.95
2023-05-17T10:39:44.902Z,16.84
2023-05-17T10:42:18.080Z,16.91
2023-05-17T10:44:49.734Z,17.01
2023-05-17T10:47:40.506Z,17.09
2023-05-17T10:50:26.999Z,17.19
2023-05-17T10:52:59.959Z,17.28
2023-05-17T10:55:40.815Z,17.37
2023-05-17T10:58:13.838Z,17.43
2023-05-17T11:00:46.147Z,17.48
2023-05-17T11:03:19.797Z,17.59
2023-05-17T11:06:23.553Z,17.62
2023-05-17T11:09:15.411Z,17.79
2023-05-17T11:12:07.627Z,17.80
2023-05-17T11:14:54.265Z,17.81
2023-05-17T11:17:27.253Z,17.85
2023-05-17T11:20:03.017Z,17.96
2023-05-17T11:22:38.907Z,18.15
2023-05-17T11:25:11.808Z,18.26
2023-05-17T11:27:47.947Z,18.37
2023-05-17T11:30:24.718Z,18.44
2023-05-17T11:32:58.123Z,18.34
2023-05-17T11:35:32.016Z,18.30
2023-05-17T11:38:31.094Z,18.31
2023-05-17T11:43:51.303Z,18.14
2023-05-17T11:50:18.947Z,18.12
2023-05-17T11:52:50.411Z,18.23
2023-05-17T11:55:21.447Z,18.18
2023-05-17T11:57:54.730Z,18.18
2023-05-17T12:00:28.671Z,18.18
2023-05-17T12:03:41.707Z,18.30
2023-05-17T12:06:15.441Z,18.38
2023-05-17T12:08:48.018Z,18.41
2023-05-17T12:11:19.403Z,18.43
2023-05-17T12:13:54.854Z,18.39
2023-05-17T12:20:18.549Z,18.18
2023-05-17T12:22:56.302Z,18.18
2023-05-17T12:25:27.033Z,18.21
2023-05-17T12:28:12.234Z,18.14
2023-05-17T12:30:43.339Z,18.20
2023-05-17T12:33:14.473Z,18.21
2023-05-17T12:35:45.395Z,18.34
2023-05-17T12:38:16.448Z,18.35
2023-05-17T12:40:47.449Z,18.37
2023-05-17T12:47:06.524Z,18.62
2023-05-17T12:50:10.164Z,18.70
2023-05-17T12:52:42.206Z,18.53
2023-05-17T12:55:15.868Z,18.36
2023-05-17T12:57:52.836Z,18.34
2023-05-17T13:00:23.964Z,18.44
2023-05-17T13:02:54.764Z,18.58
2023-05-17T13:05:25.877Z,18.74
2023-05-17T13:07:56.614Z,18.73
2023-05-17T13:10:28.846Z,18.39
2023-05-17T13:13:00.477Z,18.16
2023-05-17T13:15:33.489Z,18.03
2023-05-17T13:18:14.262Z,18.05
2023-05-17T13:20:43.441Z,18.10
2023-05-17T13:23:15.765Z,18.11
2023-05-17T13:25:46.465Z,18.19
2023-05-17T13:28:17.194Z,18.22
2023-05-17T13:30:46.299Z,18.19
2023-05-17T13:33:17.193Z,18.11
2023-05-17T13:35:47.901Z,18.09
2023-05-17T13:38:17.254Z,17.96
2023-05-17T13:40:48.186Z,17.88
2023-05-17T13:43:19.184Z,17.93
2023-05-17T13:45:49.871Z,18.04
2023-05-17T13:48:19.030Z,18.02
2023-05-17T13:50:50.121Z,17.97
2023-05-17T13:53:21.437Z,17.84
2023-05-17T13:55:52.145Z,17.76
2023-05-17T13:58:21.249Z,17.95
2023-05-17T14:00:52.581Z,18.12
2023-05-17T14:03:23.464Z,18.23
2023-05-17T14:05:54.370Z,18.14
2023-05-17T14:08:25.163Z,18.04
2023-05-17T14:10:55.798Z,17.71
2023-05-17T14:13:26.765Z,17.48
2023-05-17T14:15:57.672Z,17.56
2023-05-17T14:18:28.766Z,17.72
2023-05-17T14:20:59.767Z,17.78
2023-05-17T14:23:30.522Z,17.66
2023-05-17T14:26:01.164Z,17.68
2023-05-17T14:28:31.937Z,17.69
2023-05-17T14:31:01.020Z,17.71
2023-05-17T14:33:31.803Z,17.74
2023-05-17T14:36:01.053Z,17.75
2023-05-17T14:38:32.372Z,17.71
2023-05-17T14:41:03.479Z,17.40
2023-05-17T14:43:34.524Z,17.20
2023-05-17T14:46:06.046Z,16.97
2023-05-17T14:48:37.353Z,16.88
2023-05-17T14:51:08.335Z,16.87
2023-05-17T14:53:39.090Z,16.80
2023-05-17T14:56:09.982Z,16.76
2023-05-17T14:58:40.847Z,16.59
2023-05-17T15:01:09.936Z,16.58
2023-05-17T15:03:40.910Z,16.60
2023-05-17T15:06:12.060Z,16.69
2023-05-17T15:08:42.979Z,16.79
2023-05-17T15:11:13.694Z,16.91
2023-05-17T15:13:42.862Z,16.84
2023-05-17T15:16:13.540Z,16.74
2023-05-17T15:18:44.322Z,16.61
2023-05-17T15:21:13.432Z,16.54
2023-05-17T15:23:46.872Z,16.47
2023-05-17T15:26:17.692Z,16.62
2023-05-17T15:28:46.808Z,16.74
2023-05-17T15:31:17.633Z,16.63
2023-05-17T15:33:48.426Z,16.56
2023-05-17T15:36:19.286Z,16.46
2023-05-17T15:38:49.942Z,16.46
2023-05-17T15:41:20.862Z,16.43
2023-05-17T15:43:51.832Z,16.37
2023-05-17T15:46:22.520Z,16.24
2023-05-17T15:48:53.269Z,16.17
2023-05-17T15:51:22.368Z,16.19
2023-05-17T15:53:53.428Z,16.15
2023-05-17T15:56:24.516Z,16.12
2023-05-17T15:58:55.254Z,16.21
2023-05-17T16:01:25.969Z,16.22
2023-05-17T16:03:55.151Z,16.18
2023-05-17T16:06:26.184Z,16.17
2023-05-17T16:08:55.293Z,16.11
2023-05-17T16:11:25.971Z,16.05
2023-05-17T16:13:56.824Z,16.02
2023-05-17T16:16:25.907Z,15.93
2023-05-17T16:18:56.713Z,15.79
2023-05-17T16:21:27.515Z,15.76
2023-05-17T16:23:58.308Z,15.73
2023-05-17T16:26:27.377Z,15.64
2023-05-17T16:28:58.011Z,15.56
2023-05-17T16:31:29.115Z,15.59
2023-05-17T16:33:59.905Z,15.61
2023-05-17T16:36:30.856Z,15.63
2023-05-17T16:39:01.635Z,15.56
2023-05-17T16:41:32.303Z,15.54
2023-05-17T16:44:03.047Z,15.47
2023-05-17T16:46:32.267Z,15.44
2023-05-17T16:49:03.024Z,15.41
2023-05-17T16:51:34.084Z,15.40
2023-05-17T16:54:04.711Z,15.33
2023-05-17T16:56:35.406Z,15.23
2023-05-17T16:59:06.089Z,15.16
2023-05-17T17:01:36.999Z,15.12
2023-05-17T17:04:06.543Z,15.08
2023-05-17T17:06:38.966Z,15.08
2023-05-17T17:09:09.714Z,15.08
2023-05-17T17:11:40.517Z,15.07
2023-05-17T17:14:09.639Z,15.05
2023-05-17T17:16:40.347Z,14.99
2023-05-17T17:19:11.314Z,14.97
2023-05-17T17:21:41.963Z,14.93
2023-05-17T17:24:12.833Z,14.90
2023-05-17T17:26:43.610Z,14.87
2023-05-17T17:29:14.317Z,14.82
2023-05-17T17:31:45.137Z,14.72
2023-05-17T17:34:14.398Z,14.58
2023-05-17T17:36:45.052Z,14.50
2023-05-17T17:39:15.738Z,14.39
2023-05-17T17:41:45.062Z,14.27
2023-05-17T17:44:15.830Z,14.16
2023-05-17T17:46:46.692Z,14.08
2023-05-17T17:49:15.853Z,14.02
2023-05-17T17:51:46.520Z,13.95
2023-05-17T17:54:17.183Z,13.83
2023-05-17T17:56:47.856Z,13.73
2023-05-17T17:59:18.603Z,13.68
2023-05-17T18:01:49.434Z,13.63
2023-05-17T18:04:20.464Z,13.57
2023-05-17T18:06:49.660Z,13.52
2023-05-17T18:09:21.001Z,13.47
2023-05-17T18:11:51.755Z,13.41
2023-05-17T18:14:22.469Z,13.37
2023-05-17T18:16:53.361Z,13.34
2023-05-17T18:19:22.661Z,13.30
2023-05-17T18:21:53.479Z,13.25
2023-05-17T18:24:24.322Z,13.16
2023-05-17T18:26:54.998Z,13.08
2023-05-17T18:29:25.719Z,13.02
2023-05-17T18:31:56.684Z,12.95
2023-05-17T18:34:27.511Z,12.91
2023-05-17T18:36:58.171Z,12.89
2023-05-17T18:39:37.360Z,12.88
2023-05-17T18:42:08.591Z,12.84
2023-05-17T18:44:39.336Z,12.75
2023-05-17T18:47:10.072Z,12.68
2023-05-17T18:49:41.139Z,12.62
2023-05-17T18:52:10.373Z,12.56
2023-05-17T18:54:41.086Z,12.50
2023-05-17T18:57:11.771Z,12.42
2023-05-17T18:59:42.684Z,12.34
2023-05-17T19:02:13.412Z,12.29
2023-05-17T19:04:44.968Z,12.22
2023-05-17T19:07:14.047Z,12.18
2023-05-17T19:09:44.744Z,12.16
2023-05-17T19:12:15.457Z,12.16
2023-05-17T19:14:46.114Z,12.14
2023-05-17T19:17:16.954Z,12.14
2023-05-17T19:19:47.966Z,12.08
2023-05-17T19:22:18.646Z,12.06
2023-05-17T19:24:49.415Z,12.05
2023-05-17T19:27:20.052Z,12.08
2023-05-17T19:29:50.770Z,12.10
2023-05-17T19:32:21.402Z,12.12
2023-05-17T19:34:52.129Z,12.12
2023-05-17T19:37:22.801Z,12.09
2023-05-17T19:39:53.770Z,12.03
2023-05-17T19:42:24.532Z,12.01
2023-05-17T19:44:55.558Z,11.97
2023-05-17T19:47:26.382Z,11.97
2023-05-17T19:49:57.172Z,11.94
2023-05-17T19:52:28.176Z,11.93
2023-05-17T19:54:59.134Z,11.94
2023-05-17T19:57:29.835Z,11.93
2023-05-17T20:00:00.580Z,11.90
2023-05-17T20:02:31.261Z,11.85
2023-05-17T20:05:00.714Z,11.85
2023-05-17T20:07:31.651Z,11.81
2023-05-17T20:10:02.376Z,11.73
2023-05-17T20:12:33.292Z,11.63
2023-05-17T20:15:04.417Z,11.56
2023-05-17T20:17:35.176Z,11.50
2023-05-17T20:20:07.903Z,11.44
2023-05-17T20:22:38.815Z,11.36
2023-05-17T20:25:09.832Z,11.29
2023-05-17T20:27:38.953Z,11.23
2023-05-17T20:30:13.148Z,11.14
2023-05-17T20:32:43.887Z,11.08
2023-05-17T20:35:14.610Z,10.99
2023-05-17T20:37:45.532Z,10.91
2023-05-17T20:40:14.994Z,10.84
2023-05-17T20:42:45.762Z,10.80
2023-05-17T20:45:16.522Z,10.75
2023-05-17T20:47:47.336Z,10.70
2023-05-17T20:50:19.556Z,10.64
2023-05-17T20:52:52.147Z,10.60
2023-05-17T20:55:23.676Z,10.52
2023-05-17T20:57:54.831Z,10.49
2023-05-17T21:00:25.632Z,10.44
2023-05-17T21:02:56.427Z,10.39
2023-05-17T21:05:27.699Z,10.34
2023-05-17T21:07:58.684Z,10.26
2023-05-17T21:10:29.936Z,10.22
2023-05-17T21:13:01.095Z,10.15
2023-05-17T21:15:34.839Z,10.11
2023-05-17T21:18:06.115Z,10.06
2023-05-17T21:20:39.583Z,10.02
2023-05-17T21:23:10.277Z,10.00
2023-05-17T21:25:43.871Z,9.97
2023-05-17T21:28:14.562Z,9.97
2023-05-17T21:30:47.690Z,9.93
2023-05-17T21:33:18.760Z,9.87
2023-05-17T21:35:52.189Z,9.85
2023-05-17T21:38:22.829Z,9.81
2023-05-17T21:40:53.573Z,9.78
2023-05-17T21:43:24.262Z,9.73
2023-05-17T21:45:54.934Z,9.69
2023-05-17T21:48:25.730Z,9.64
2023-05-17T21:51:17.010Z,9.61
2023-05-17T21:53:47.755Z,9.57
2023-05-17T21:56:19.766Z,9.53
2023-05-17T21:58:50.572Z,9.50
2023-05-17T22:01:19.949Z,9.46
2023-05-17T22:03:51.003Z,9.41
2023-05-17T22:06:21.985Z,9.41
2023-05-17T22:08:52.791Z,9.42
2023-05-17T22:11:24.683Z,9.42
2023-05-17T22:13:55.400Z,9.41
2023-05-17T22:16:26.315Z,9.40
2023-05-17T22:18:55.626Z,9.40
2023-05-17T22:21:26.689Z,9.41
2023-05-17T22:23:56.187Z,9.38
2023-05-17T22:26:27.154Z,9.35
2023-05-17T22:28:57.961Z,9.33
2023-05-17T22:31:28.863Z,9.32
2023-05-17T22:33:59.601Z,9.27
2023-05-17T22:36:30.408Z,9.23
2023-05-17T22:39:01.309Z,9.20
2023-05-17T22:41:31.990Z,9.17
2023-05-17T22:44:02.736Z,9.13
2023-05-17T22:46:33.555Z,9.11
2023-05-17T22:49:04.308Z,9.09
2023-05-17T22:51:35.084Z,9.09
2023-05-17T22:54:06.194Z,9.10
2023-05-17T22:56:35.380Z,9.12
2023-05-17T22:59:06.425Z,9.13
2023-05-17T23:01:35.691Z,9.14
2023-05-17T23:04:06.924Z,9.13
2023-05-17T23:06:37.995Z,9.11
2023-05-17T23:09:07.113Z,9.07
2023-05-17T23:11:37.837Z,9.03
2023-05-17T23:14:08.494Z,8.97
2023-05-17T23:16:39.442Z,8.91
2023-05-17T23:19:10.349Z,8.86
2023-05-17T23:21:41.061Z,8.86
2023-05-17T23:24:11.760Z,8.88
2023-05-17T23:26:42.539Z,8.88
2023-05-17T23:29:13.185Z,8.89
2023-05-17T23:31:44.314Z,8.88
2023-05-17T23:34:15.169Z,8.84
2023-05-17T23:36:45.944Z,8.83
2023-05-17T23:39:16.668Z,8.81
2023-05-17T23:41:47.408Z,8.78
2023-05-17T23:44:18.133Z,8.75
2023-05-17T23:46:48.937Z,8.75
2023-05-17T23:49:19.652Z,8.77
2023-05-17T23:51:50.410Z,8.80
2023-05-17T23:54:21.082Z,8.82
2023-05-17T23:56:51.795Z,8.79
2023-05-17T23:59:22.497Z,8.76
